sensor_id;sensor_type;location;lat;lon;timestamp;temperature;humidity
28614;DHT22;15806;53.548;9.964;2023-04-03T00:01:37;2.20;1.00
28614;DHT22;15806;53.548;9.964;2023-04-03T00:03:18;2.20;1.00
28614;DHT22;15806;53.548;9.964;2023-04-03T00:04:59;2.20;1.00
28614;DHT22;15806;53.548;9.964;2023-04-03T00:06:39;2.20;1.00
28614;DHT22;15806;53.548;9.964;2023-04-03T00:08:20;2.20;1.00
28614;DHT22;15806;53.548;9.964;2023-04-03T00:10:01;2.20;11.40
28614;DHT22;15806;53.548;9.964;2023-04-03T00:11:41;2.30;30.00
28614;DHT22;15806;53.548;9.964;2023-04-03T00:13:22;2.20;61.90
28614;DHT22;15806;53.548;9.964;2023-04-03T00:15:03;2.30;99.90
28614;DHT22;15806;53.548;9.964;2023-04-03T00:16:44;2.20;99.90
28614;DHT22;15806;53.548;9.964;2023-04-03T00:18:25;2.30;99.90
28614;DHT22;15806;53.548;9.964;2023-04-03T00:20:06;2.20;99.90
28614;DHT22;15806;53.548;9.964;2023-04-03T00:21:46;2.30;99.90
28614;DHT22;15806;53.548;9.964;2023-04-03T00:23:27;2.30;99.90
28614;DHT22;15806;53.548;9.964;2023-04-03T00:25:08;2.30;99.90
28614;DHT22;15806;53.548;9.964;2023-04-03T00:26:48;2.30;91.20
28614;DHT22;15806;53.548;9.964;2023-04-03T00:28:29;2.30;12.60
28614;DHT22;15806;53.548;9.964;2023-04-03T00:30:13;2.20;81.80
28614;DHT22;15806;53.548;9.964;2023-04-03T00:31:54;2.20;37.10
28614;DHT22;15806;53.548;9.964;2023-04-03T00:33:35;2.20;5.00
28614;DHT22;15806;53.548;9.964;2023-04-03T00:35:15;2.20;99.90
28614;DHT22;15806;53.548;9.964;2023-04-03T00:36:57;2.20;99.90
28614;DHT22;15806;53.548;9.964;2023-04-03T00:38:37;2.20;99.90
28614;DHT22;15806;53.548;9.964;2023-04-03T00:40:18;2.20;99.90
28614;DHT22;15806;53.548;9.964;2023-04-03T00:41:59;2.20;99.90
28614;DHT22;15806;53.548;9.964;2023-04-03T00:43:39;2.20;99.90
28614;DHT22;15806;53.548;9.964;2023-04-03T00:47:09;2.20;23.70
28614;DHT22;15806;53.548;9.964;2023-04-03T00:48:51;2.20;1.00
28614;DHT22;15806;53.548;9.964;2023-04-03T00:50:32;2.20;1.00
28614;DHT22;15806;53.548;9.964;2023-04-03T00:52:16;2.20;1.00
28614;DHT22;15806;53.548;9.964;2023-04-03T00:54:03;2.20;1.00
28614;DHT22;15806;53.548;9.964;2023-04-03T00:55:47;2.10;1.00
28614;DHT22;15806;53.548;9.964;2023-04-03T00:57:30;2.10;1.00
28614;DHT22;15806;53.548;9.964;2023-04-03T00:59:20;2.10;1.00
28614;DHT22;15806;53.548;9.964;2023-04-03T01:01:06;2.10;1.00
28614;DHT22;15806;53.548;9.964;2023-04-03T01:02:48;2.10;1.00
28614;DHT22;15806;53.548;9.964;2023-04-03T01:04:40;2.10;99.90
28614;DHT22;15806;53.548;9.964;2023-04-03T01:06:24;2.10;99.90
28614;DHT22;15806;53.548;9.964;2023-04-03T01:08:06;2.10;99.90
28614;DHT22;15806;53.548;9.964;2023-04-03T01:09:48;2.20;99.90
28614;DHT22;15806;53.548;9.964;2023-04-03T01:11:30;2.10;99.90
28614;DHT22;15806;53.548;9.964;2023-04-03T01:13:29;2.10;99.90
28614;DHT22;15806;53.548;9.964;2023-04-03T01:16:58;2.10;99.90
28614;DHT22;15806;53.548;9.964;2023-04-03T01:18:39;2.10;1.00
28614;DHT22;15806;53.548;9.964;2023-04-03T01:22:19;2.20;1.00
28614;DHT22;15806;53.548;9.964;2023-04-03T01:26:03;2.10;99.90
28614;DHT22;15806;53.548;9.964;2023-04-03T01:27:43;2.10;99.90
28614;DHT22;15806;53.548;9.964;2023-04-03T01:29:24;2.10;99.90
28614;DHT22;15806;53.548;9.964;2023-04-03T01:31:28;2.10;99.90
28614;DHT22;15806;53.548;9.964;2023-04-03T01:33:10;2.10;99.90
28614;DHT22;15806;53.548;9.964;2023-04-03T01:34:51;2.20;99.90
28614;DHT22;15806;53.548;9.964;2023-04-03T01:36:31;2.10;99.90
28614;DHT22;15806;53.548;9.964;2023-04-03T01:38:12;2.10;99.90
28614;DHT22;15806;53.548;9.964;2023-04-03T01:39:53;2.10;99.90
28614;DHT22;15806;53.548;9.964;2023-04-03T01:41:34;2.10;99.90
28614;DHT22;15806;53.548;9.964;2023-04-03T01:43:14;2.10;1.00
28614;DHT22;15806;53.548;9.964;2023-04-03T01:44:56;2.10;1.00
28614;DHT22;15806;53.548;9.964;2023-04-03T01:46:37;2.10;1.00
28614;DHT22;15806;53.548;9.964;2023-04-03T01:48:17;2.10;1.00
28614;DHT22;15806;53.548;9.964;2023-04-03T01:49:58;2.20;1.00
28614;DHT22;15806;53.548;9.964;2023-04-03T01:51:38;2.20;1.00
28614;DHT22;15806;53.548;9.964;2023-04-03T01:53:19;2.20;1.00
28614;DHT22;15806;53.548;9.964;2023-04-03T01:54:59;2.30;1.00
28614;DHT22;15806;53.548;9.964;2023-04-03T01:56:40;2.20;99.90
28614;DHT22;15806;53.548;9.964;2023-04-03T01:58:21;2.20;99.90
28614;DHT22;15806;53.548;9.964;2023-04-03T02:00:02;2.10;99.90
28614;DHT22;15806;53.548;9.964;2023-04-03T02:01:43;2.10;99.90
28614;DHT22;15806;53.548;9.964;2023-04-03T02:03:23;2.10;99.90
28614;DHT22;15806;53.548;9.964;2023-04-03T02:05:04;2.10;99.90
28614;DHT22;15806;53.548;9.964;2023-04-03T02:06:46;2.00;99.90
28614;DHT22;15806;53.548;9.964;2023-04-03T02:08:26;2.00;1.00
28614;DHT22;15806;53.548;9.964;2023-04-03T02:10:07;2.00;1.00
28614;DHT22;15806;53.548;9.964;2023-04-03T02:11:48;1.90;1.00
28614;DHT22;15806;53.548;9.964;2023-04-03T02:13:28;1.90;1.00
28614;DHT22;15806;53.548;9.964;2023-04-03T02:15:09;1.90;1.00
28614;DHT22;15806;53.548;9.964;2023-04-03T02:16:50;1.90;1.00
28614;DHT22;15806;53.548;9.964;2023-04-03T02:18:30;1.90;1.00
28614;DHT22;15806;53.548;9.964;2023-04-03T02:20:11;1.90;4.50
28614;DHT22;15806;53.548;9.964;2023-04-03T02:21:51;1.90;99.90
28614;DHT22;15806;53.548;9.964;2023-04-03T02:23:32;1.90;97.90
28614;DHT22;15806;53.548;9.964;2023-04-03T02:25:12;1.90;99.90
28614;DHT22;15806;53.548;9.964;2023-04-03T02:26:53;1.90;99.90
28614;DHT22;15806;53.548;9.964;2023-04-03T02:28:34;1.90;99.90
28614;DHT22;15806;53.548;9.964;2023-04-03T02:30:15;1.90;99.90
28614;DHT22;15806;53.548;9.964;2023-04-03T02:31:58;1.80;99.90
28614;DHT22;15806;53.548;9.964;2023-04-03T02:33:39;1.80;99.90
28614;DHT22;15806;53.548;9.964;2023-04-03T02:35:20;1.80;99.90
28614;DHT22;15806;53.548;9.964;2023-04-03T02:37:00;1.80;99.90
28614;DHT22;15806;53.548;9.964;2023-04-03T02:38:41;1.70;99.90
28614;DHT22;15806;53.548;9.964;2023-04-03T02:40:21;1.70;99.90
28614;DHT22;15806;53.548;9.964;2023-04-03T02:42:04;1.70;99.90
28614;DHT22;15806;53.548;9.964;2023-04-03T02:43:44;1.70;99.90
28614;DHT22;15806;53.548;9.964;2023-04-03T02:45:25;1.60;1.00
28614;DHT22;15806;53.548;9.964;2023-04-03T02:47:05;1.60;1.00
28614;DHT22;15806;53.548;9.964;2023-04-03T02:48:46;1.60;1.00
28614;DHT22;15806;53.548;9.964;2023-04-03T02:50:26;1.60;1.00
28614;DHT22;15806;53.548;9.964;2023-04-03T02:52:07;1.60;1.00
28614;DHT22;15806;53.548;9.964;2023-04-03T02:53:47;1.60;1.00
28614;DHT22;15806;53.548;9.964;2023-04-03T02:55:28;1.60;35.00
28614;DHT22;15806;53.548;9.964;2023-04-03T02:57:08;1.60;84.10
28614;DHT22;15806;53.548;9.964;2023-04-03T02:58:49;1.60;99.90
28614;DHT22;15806;53.548;9.964;2023-04-03T03:00:29;1.50;99.90
28614;DHT22;15806;53.548;9.964;2023-04-03T03:02:10;1.50;99.90
28614;DHT22;15806;53.548;9.964;2023-04-03T03:03:52;1.50;99.90
28614;DHT22;15806;53.548;9.964;2023-04-03T03:05:34;1.50;99.90
28614;DHT22;15806;53.548;9.964;2023-04-03T03:07:15;1.50;99.90
28614;DHT22;15806;53.548;9.964;2023-04-03T03:08:55;1.50;99.90
28614;DHT22;15806;53.548;9.964;2023-04-03T03:10:36;1.50;1.00
28614;DHT22;15806;53.548;9.964;2023-04-03T03:12:16;1.50;1.00
28614;DHT22;15806;53.548;9.964;2023-04-03T03:13:57;1.50;1.00
28614;DHT22;15806;53.548;9.964;2023-04-03T03:15:38;1.50;1.00
28614;DHT22;15806;53.548;9.964;2023-04-03T03:17:18;1.50;1.00
28614;DHT22;15806;53.548;9.964;2023-04-03T03:18:59;1.50;1.00
28614;DHT22;15806;53.548;9.964;2023-04-03T03:20:39;1.50;1.00
28614;DHT22;15806;53.548;9.964;2023-04-03T03:22:20;1.50;1.00
28614;DHT22;15806;53.548;9.964;2023-04-03T03:24:00;1.50;29.50
28614;DHT22;15806;53.548;9.964;2023-04-03T03:25:41;1.50;99.90
28614;DHT22;15806;53.548;9.964;2023-04-03T03:27:23;1.50;99.90
28614;DHT22;15806;53.548;9.964;2023-04-03T03:29:03;1.50;99.90
28614;DHT22;15806;53.548;9.964;2023-04-03T03:30:44;1.50;99.90
28614;DHT22;15806;53.548;9.964;2023-04-03T03:32:24;1.40;99.90
28614;DHT22;15806;53.548;9.964;2023-04-03T03:34:05;1.40;1.00
28614;DHT22;15806;53.548;9.964;2023-04-03T03:35:47;1.40;1.00
28614;DHT22;15806;53.548;9.964;2023-04-03T03:37:27;1.40;1.00
28614;DHT22;15806;53.548;9.964;2023-04-03T03:39:08;1.40;1.00
28614;DHT22;15806;53.548;9.964;2023-04-03T03:40:50;1.40;81.20
28614;DHT22;15806;53.548;9.964;2023-04-03T03:42:31;1.30;99.90
28614;DHT22;15806;53.548;9.964;2023-04-03T03:44:11;1.30;99.90
28614;DHT22;15806;53.548;9.964;2023-04-03T03:45:52;1.30;1.00
28614;DHT22;15806;53.548;9.964;2023-04-03T03:47:33;1.30;1.00
28614;DHT22;15806;53.548;9.964;2023-04-03T03:49:13;1.30;1.00
28614;DHT22;15806;53.548;9.964;2023-04-03T03:50:54;1.30;99.90
28614;DHT22;15806;53.548;9.964;2023-04-03T03:52:34;1.30;99.90
28614;DHT22;15806;53.548;9.964;2023-04-03T03:54:15;1.30;99.90
28614;DHT22;15806;53.548;9.964;2023-04-03T03:55:55;1.30;1.00
28614;DHT22;15806;53.548;9.964;2023-04-03T03:57:36;1.30;1.00
28614;DHT22;15806;53.548;9.964;2023-04-03T03:59:17;1.30;9.70
28614;DHT22;15806;53.548;9.964;2023-04-03T04:01:01;1.30;99.90
28614;DHT22;15806;53.548;9.964;2023-04-03T04:02:42;1.30;99.90
28614;DHT22;15806;53.548;9.964;2023-04-03T04:04:22;1.20;99.90
28614;DHT22;15806;53.548;9.964;2023-04-03T04:06:03;1.20;1.00
28614;DHT22;15806;53.548;9.964;2023-04-03T04:07:44;1.20;1.00
28614;DHT22;15806;53.548;9.964;2023-04-03T04:09:24;1.20;1.00
28614;DHT22;15806;53.548;9.964;2023-04-03T04:11:05;1.20;75.70
28614;DHT22;15806;53.548;9.964;2023-04-03T04:12:46;1.20;99.90
28614;DHT22;15806;53.548;9.964;2023-04-03T04:14:26;1.10;99.90
28614;DHT22;15806;53.548;9.964;2023-04-03T04:16:07;1.20;1.00
28614;DHT22;15806;53.548;9.964;2023-04-03T04:17:48;1.20;1.00
28614;DHT22;15806;53.548;9.964;2023-04-03T04:19:28;1.20;1.80
28614;DHT22;15806;53.548;9.964;2023-04-03T04:21:09;1.20;77.30
28614;DHT22;15806;53.548;9.964;2023-04-03T04:22:49;1.20;99.90
28614;DHT22;15806;53.548;9.964;2023-04-03T04:24:30;1.10;99.90
28614;DHT22;15806;53.548;9.964;2023-04-03T04:26:11;1.10;99.90
28614;DHT22;15806;53.548;9.964;2023-04-03T04:27:51;1.10;99.90
28614;DHT22;15806;53.548;9.964;2023-04-03T04:29:32;1.10;99.90
28614;DHT22;15806;53.548;9.964;2023-04-03T04:31:12;1.10;99.90
28614;DHT22;15806;53.548;9.964;2023-04-03T04:32:53;1.10;99.90
28614;DHT22;15806;53.548;9.964;2023-04-03T04:34:33;1.10;99.90
28614;DHT22;15806;53.548;9.964;2023-04-03T04:36:14;1.10;99.90
28614;DHT22;15806;53.548;9.964;2023-04-03T04:37:54;1.10;99.90
28614;DHT22;15806;53.548;9.964;2023-04-03T04:39:35;1.10;99.90
28614;DHT22;15806;53.548;9.964;2023-04-03T04:41:16;1.20;99.90
28614;DHT22;15806;53.548;9.964;2023-04-03T04:42:56;1.10;99.90
28614;DHT22;15806;53.548;9.964;2023-04-03T04:44:37;1.20;99.90
28614;DHT22;15806;53.548;9.964;2023-04-03T04:46:18;1.20;99.90
28614;DHT22;15806;53.548;9.964;2023-04-03T04:47:58;1.20;99.90
28614;DHT22;15806;53.548;9.964;2023-04-03T04:49:39;1.10;99.90
28614;DHT22;15806;53.548;9.964;2023-04-03T04:51:19;1.20;99.90
28614;DHT22;15806;53.548;9.964;2023-04-03T04:53:01;1.10;99.90
28614;DHT22;15806;53.548;9.964;2023-04-03T04:54:41;1.10;99.90
28614;DHT22;15806;53.548;9.964;2023-04-03T04:56:22;1.20;99.90
28614;DHT22;15806;53.548;9.964;2023-04-03T04:58:03;1.20;99.90
28614;DHT22;15806;53.548;9.964;2023-04-03T04:59:43;1.10;99.90
28614;DHT22;15806;53.548;9.964;2023-04-03T05:01:25;1.20;99.90
28614;DHT22;15806;53.548;9.964;2023-04-03T05:03:05;1.10;99.90
28614;DHT22;15806;53.548;9.964;2023-04-03T05:04:46;1.10;99.90
28614;DHT22;15806;53.548;9.964;2023-04-03T05:06:26;1.10;99.90
28614;DHT22;15806;53.548;9.964;2023-04-03T05:08:08;1.10;99.90
28614;DHT22;15806;53.548;9.964;2023-04-03T05:09:50;1.10;99.90
28614;DHT22;15806;53.548;9.964;2023-04-03T05:11:31;1.20;99.90
28614;DHT22;15806;53.548;9.964;2023-04-03T05:13:12;1.10;99.90
28614;DHT22;15806;53.548;9.964;2023-04-03T05:14:52;1.10;99.90
28614;DHT22;15806;53.548;9.964;2023-04-03T05:16:33;1.10;99.90
28614;DHT22;15806;53.548;9.964;2023-04-03T05:18:14;1.10;99.90
28614;DHT22;15806;53.548;9.964;2023-04-03T05:19:55;1.10;99.90
28614;DHT22;15806;53.548;9.964;2023-04-03T05:21:35;1.10;99.90
28614;DHT22;15806;53.548;9.964;2023-04-03T05:23:16;1.10;99.90
28614;DHT22;15806;53.548;9.964;2023-04-03T05:24:57;1.20;99.90
28614;DHT22;15806;53.548;9.964;2023-04-03T05:26:37;1.20;99.90
28614;DHT22;15806;53.548;9.964;2023-04-03T05:28:18;1.20;99.90
28614;DHT22;15806;53.548;9.964;2023-04-03T05:30:00;1.20;99.90
28614;DHT22;15806;53.548;9.964;2023-04-03T05:31:41;1.20;99.90
28614;DHT22;15806;53.548;9.964;2023-04-03T05:33:22;1.20;99.90
28614;DHT22;15806;53.548;9.964;2023-04-03T05:35:03;1.20;99.90
28614;DHT22;15806;53.548;9.964;2023-04-03T05:36:44;1.20;99.90
28614;DHT22;15806;53.548;9.964;2023-04-03T05:38:24;1.20;99.90
28614;DHT22;15806;53.548;9.964;2023-04-03T05:40:05;1.20;99.90
28614;DHT22;15806;53.548;9.964;2023-04-03T05:41:46;1.20;99.90
28614;DHT22;15806;53.548;9.964;2023-04-03T05:43:26;1.20;99.90
28614;DHT22;15806;53.548;9.964;2023-04-03T05:45:07;1.30;99.90
28614;DHT22;15806;53.548;9.964;2023-04-03T05:46:48;1.30;99.90
28614;DHT22;15806;53.548;9.964;2023-04-03T05:48:30;1.30;99.90
28614;DHT22;15806;53.548;9.964;2023-04-03T05:50:10;1.40;99.90
28614;DHT22;15806;53.548;9.964;2023-04-03T05:51:53;1.40;99.90
28614;DHT22;15806;53.548;9.964;2023-04-03T05:53:35;1.40;99.90
28614;DHT22;15806;53.548;9.964;2023-04-03T05:55:17;1.50;99.90
28614;DHT22;15806;53.548;9.964;2023-04-03T05:56:57;1.50;99.90
28614;DHT22;15806;53.548;9.964;2023-04-03T05:58:38;1.50;99.90
28614;DHT22;15806;53.548;9.964;2023-04-03T06:00:19;1.50;99.90
28614;DHT22;15806;53.548;9.964;2023-04-03T06:01:59;1.60;99.90
28614;DHT22;15806;53.548;9.964;2023-04-03T06:03:40;1.60;99.90
28614;DHT22;15806;53.548;9.964;2023-04-03T06:05:20;1.60;99.90
28614;DHT22;15806;53.548;9.964;2023-04-03T06:07:01;1.70;99.90
28614;DHT22;15806;53.548;9.964;2023-04-03T06:08:41;1.70;99.90
28614;DHT22;15806;53.548;9.964;2023-04-03T06:10:23;1.70;99.90
28614;DHT22;15806;53.548;9.964;2023-04-03T06:12:03;1.70;99.90
28614;DHT22;15806;53.548;9.964;2023-04-03T06:13:44;1.80;99.90
28614;DHT22;15806;53.548;9.964;2023-04-03T06:15:24;1.80;99.90
28614;DHT22;15806;53.548;9.964;2023-04-03T06:17:05;1.80;1.00
28614;DHT22;15806;53.548;9.964;2023-04-03T06:18:45;2.00;1.00
28614;DHT22;15806;53.548;9.964;2023-04-03T06:20:26;2.00;99.90
28614;DHT22;15806;53.548;9.964;2023-04-03T06:22:06;2.10;1.00
28614;DHT22;15806;53.548;9.964;2023-04-03T06:23:47;2.10;99.90
28614;DHT22;15806;53.548;9.964;2023-04-03T06:25:28;2.20;1.00
28614;DHT22;15806;53.548;9.964;2023-04-03T06:27:10;2.20;1.00
28614;DHT22;15806;53.548;9.964;2023-04-03T06:28:50;2.40;1.00
28614;DHT22;15806;53.548;9.964;2023-04-03T06:30:31;2.50;1.00
28614;DHT22;15806;53.548;9.964;2023-04-03T06:32:11;2.60;99.90
28614;DHT22;15806;53.548;9.964;2023-04-03T06:33:52;2.50;95.30
28614;DHT22;15806;53.548;9.964;2023-04-03T06:35:32;2.70;1.00
28614;DHT22;15806;53.548;9.964;2023-04-03T06:37:16;2.80;99.90
28614;DHT22;15806;53.548;9.964;2023-04-03T06:38:58;2.90;1.00
28614;DHT22;15806;53.548;9.964;2023-04-03T06:40:39;2.90;1.00
28614;DHT22;15806;53.548;9.964;2023-04-03T06:42:19;3.00;99.90
28614;DHT22;15806;53.548;9.964;2023-04-03T06:44:00;3.00;18.90
28614;DHT22;15806;53.548;9.964;2023-04-03T06:45:40;3.20;1.00
28614;DHT22;15806;53.548;9.964;2023-04-03T06:47:21;4.10;63.20
28614;DHT22;15806;53.548;9.964;2023-04-03T06:49:01;5.10;1.00
28614;DHT22;15806;53.548;9.964;2023-04-03T06:50:42;6.10;99.90
28614;DHT22;15806;53.548;9.964;2023-04-03T06:52:24;6.80;1.00
28614;DHT22;15806;53.548;9.964;2023-04-03T06:54:04;7.50;1.00
28614;DHT22;15806;53.548;9.964;2023-04-03T06:55:45;8.10;99.90
28614;DHT22;15806;53.548;9.964;2023-04-03T06:57:26;8.80;20.90
28614;DHT22;15806;53.548;9.964;2023-04-03T06:59:06;9.20;99.90
28614;DHT22;15806;53.548;9.964;2023-04-03T07:00:47;9.20;65.50
28614;DHT22;15806;53.548;9.964;2023-04-03T07:02:27;8.50;1.00
28614;DHT22;15806;53.548;9.964;2023-04-03T07:04:08;8.40;99.90
28614;DHT22;15806;53.548;9.964;2023-04-03T07:05:50;9.00;99.90
28614;DHT22;15806;53.548;9.964;2023-04-03T07:07:30;7.90;99.90
28614;DHT22;15806;53.548;9.964;2023-04-03T07:09:10;8.10;99.90
28614;DHT22;15806;53.548;9.964;2023-04-03T07:10:51;8.40;99.90
28614;DHT22;15806;53.548;9.964;2023-04-03T07:12:32;8.60;64.90
28614;DHT22;15806;53.548;9.964;2023-04-03T07:14:12;8.30;1.00
28614;DHT22;15806;53.548;9.964;2023-04-03T07:15:53;7.70;1.00
28614;DHT22;15806;53.548;9.964;2023-04-03T07:17:34;7.10;9.10
28614;DHT22;15806;53.548;9.964;2023-04-03T07:19:16;6.80;52.70
28614;DHT22;15806;53.548;9.964;2023-04-03T07:20:57;6.70;91.40
28614;DHT22;15806;53.548;9.964;2023-04-03T07:22:38;6.30;99.90
28614;DHT22;15806;53.548;9.964;2023-04-03T07:24:18;5.90;99.90
28614;DHT22;15806;53.548;9.964;2023-04-03T07:25:59;5.70;99.90
28614;DHT22;15806;53.548;9.964;2023-04-03T07:27:39;5.50;99.90
28614;DHT22;15806;53.548;9.964;2023-04-03T07:29:20;5.50;99.90
28614;DHT22;15806;53.548;9.964;2023-04-03T07:31:05;5.30;99.90
28614;DHT22;15806;53.548;9.964;2023-04-03T07:32:46;5.40;99.90
28614;DHT22;15806;53.548;9.964;2023-04-03T07:34:27;5.50;99.90
28614;DHT22;15806;53.548;9.964;2023-04-03T07:36:09;5.50;99.90
28614;DHT22;15806;53.548;9.964;2023-04-03T07:37:51;5.50;99.90
28614;DHT22;15806;53.548;9.964;2023-04-03T07:39:32;5.70;99.90
28614;DHT22;15806;53.548;9.964;2023-04-03T07:41:18;5.80;99.90
28614;DHT22;15806;53.548;9.964;2023-04-03T07:47:32;5.40;99.90
28614;DHT22;15806;53.548;9.964;2023-04-03T07:49:16;5.30;99.90
28614;DHT22;15806;53.548;9.964;2023-04-03T07:51:03;5.40;99.90
28614;DHT22;15806;53.548;9.964;2023-04-03T07:52:50;5.60;99.90
28614;DHT22;15806;53.548;9.964;2023-04-03T07:54:31;5.80;99.90
28614;DHT22;15806;53.548;9.964;2023-04-03T07:56:11;5.60;99.90
28614;DHT22;15806;53.548;9.964;2023-04-03T07:58:04;5.50;99.90
28614;DHT22;15806;53.548;9.964;2023-04-03T08:03:51;6.00;99.90
28614;DHT22;15806;53.548;9.964;2023-04-03T08:05:47;5.90;99.90
28614;DHT22;15806;53.548;9.964;2023-04-03T08:12:05;5.70;99.90
28614;DHT22;15806;53.548;9.964;2023-04-03T08:14:10;6.00;99.90
28614;DHT22;15806;53.548;9.964;2023-04-03T08:15:54;6.00;89.60
28614;DHT22;15806;53.548;9.964;2023-04-03T08:18:09;5.90;37.40
28614;DHT22;15806;53.548;9.964;2023-04-03T08:19:49;6.10;3.50
28614;DHT22;15806;53.548;9.964;2023-04-03T09:03:35;7.40;1.00
28614;DHT22;15806;53.548;9.964;2023-04-03T09:05:35;7.20;1.00
28614;DHT22;15806;53.548;9.964;2023-04-03T09:12:23;7.10;1.00
28614;DHT22;15806;53.548;9.964;2023-04-03T09:16:13;7.30;1.00
28614;DHT22;15806;53.548;9.964;2023-04-03T09:20:14;7.70;99.90
28614;DHT22;15806;53.548;9.964;2023-04-03T09:22:07;7.60;99.90
28614;DHT22;15806;53.548;9.964;2023-04-03T09:23:51;7.40;99.90
28614;DHT22;15806;53.548;9.964;2023-04-03T09:25:35;7.50;99.90
28614;DHT22;15806;53.548;9.964;2023-04-03T09:27:17;7.50;99.90
28614;DHT22;15806;53.548;9.964;2023-04-03T09:29:00;7.10;99.90
28614;DHT22;15806;53.548;9.964;2023-04-03T09:30:42;7.10;99.90
28614;DHT22;15806;53.548;9.964;2023-04-03T09:32:31;7.10;99.90
28614;DHT22;15806;53.548;9.964;2023-04-03T09:34:23;7.10;99.90
28614;DHT22;15806;53.548;9.964;2023-04-03T09:36:05;7.40;99.90
28614;DHT22;15806;53.548;9.964;2023-04-03T09:37:51;7.30;99.90
28614;DHT22;15806;53.548;9.964;2023-04-03T09:39:51;7.40;99.90
28614;DHT22;15806;53.548;9.964;2023-04-03T09:41:32;7.00;99.90
28614;DHT22;15806;53.548;9.964;2023-04-03T09:43:25;7.00;99.90
28614;DHT22;15806;53.548;9.964;2023-04-03T09:45:22;7.00;99.90
28614;DHT22;15806;53.548;9.964;2023-04-03T09:47:29;6.50;99.90
28614;DHT22;15806;53.548;9.964;2023-04-03T09:49:11;6.50;99.90
28614;DHT22;15806;53.548;9.964;2023-04-03T09:50:54;6.70;99.90
28614;DHT22;15806;53.548;9.964;2023-04-03T09:52:34;6.70;99.90
28614;DHT22;15806;53.548;9.964;2023-04-03T09:54:34;6.80;99.90
28614;DHT22;15806;53.548;9.964;2023-04-03T09:56:19;6.80;99.90
28614;DHT22;15806;53.548;9.964;2023-04-03T09:58:02;6.60;99.90
28614;DHT22;15806;53.548;9.964;2023-04-03T10:00:00;6.60;99.90
28614;DHT22;15806;53.548;9.964;2023-04-03T10:01:43;6.40;99.90
28614;DHT22;15806;53.548;9.964;2023-04-03T10:03:36;6.50;99.90
28614;DHT22;15806;53.548;9.964;2023-04-03T10:05:33;6.50;99.90
28614;DHT22;15806;53.548;9.964;2023-04-03T10:09:29;6.60;99.90
28614;DHT22;15806;53.548;9.964;2023-04-03T10:11:15;6.70;99.90
28614;DHT22;15806;53.548;9.964;2023-04-03T10:13:19;6.80;99.90
28614;DHT22;15806;53.548;9.964;2023-04-03T10:15:00;6.90;99.90
28614;DHT22;15806;53.548;9.964;2023-04-03T10:16:47;6.90;99.90
28614;DHT22;15806;53.548;9.964;2023-04-03T10:22:25;7.00;99.90
28614;DHT22;15806;53.548;9.964;2023-04-03T10:28:43;7.10;99.90
28614;DHT22;15806;53.548;9.964;2023-04-03T10:34:40;7.10;99.90
28614;DHT22;15806;53.548;9.964;2023-04-03T10:36:19;7.20;99.90
28614;DHT22;15806;53.548;9.964;2023-04-03T10:38:13;7.40;99.90
28614;DHT22;15806;53.548;9.964;2023-04-03T10:42:35;7.30;99.90
28614;DHT22;15806;53.548;9.964;2023-04-03T10:46:49;7.40;99.90
28614;DHT22;15806;53.548;9.964;2023-04-03T10:48:57;7.50;99.90
28614;DHT22;15806;53.548;9.964;2023-04-03T10:50:44;7.50;99.90
28614;DHT22;15806;53.548;9.964;2023-04-03T10:52:37;7.60;99.90
28614;DHT22;15806;53.548;9.964;2023-04-03T10:55:14;7.50;99.90
28614;DHT22;15806;53.548;9.964;2023-04-03T10:56:37;7.30;99.90
28614;DHT22;15806;53.548;9.964;2023-04-03T11:04:31;7.50;99.90
28614;DHT22;15806;53.548;9.964;2023-04-03T11:06:16;7.60;99.90
28614;DHT22;15806;53.548;9.964;2023-04-03T11:08:03;7.70;99.90
28614;DHT22;15806;53.548;9.964;2023-04-03T11:09:52;7.70;99.90
28614;DHT22;15806;53.548;9.964;2023-04-03T11:11:38;7.70;99.90
28614;DHT22;15806;53.548;9.964;2023-04-03T11:15:39;8.00;99.90
28614;DHT22;15806;53.548;9.964;2023-04-03T11:19:21;8.30;99.90
28614;DHT22;15806;53.548;9.964;2023-04-03T11:23:24;7.70;99.90
28614;DHT22;15806;53.548;9.964;2023-04-03T11:25:21;7.50;99.90
28614;DHT22;15806;53.548;9.964;2023-04-03T11:27:04;7.40;99.90
28614;DHT22;15806;53.548;9.964;2023-04-03T11:28:52;7.20;99.90
28614;DHT22;15806;53.548;9.964;2023-04-03T12:31:42;13.20;99.90
28614;DHT22;15806;53.548;9.964;2023-04-03T12:46:47;10.30;99.90
28614;DHT22;15806;53.548;9.964;2023-04-03T12:58:45;15.50;99.90
28614;DHT22;15806;53.548;9.964;2023-04-03T13:03:25;13.60;91.50
28614;DHT22;15806;53.548;9.964;2023-04-03T13:05:35;11.00;99.90
28614;DHT22;15806;53.548;9.964;2023-04-03T13:10:20;9.90;99.90
28614;DHT22;15806;53.548;9.964;2023-04-03T13:14:36;9.60;99.90
28614;DHT22;15806;53.548;9.964;2023-04-03T13:20:50;8.50;99.90
28614;DHT22;15806;53.548;9.964;2023-04-03T13:22:56;8.30;99.90
28614;DHT22;15806;53.548;9.964;2023-04-03T13:24:40;8.10;99.90
28614;DHT22;15806;53.548;9.964;2023-04-03T13:28:24;8.20;99.90
28614;DHT22;15806;53.548;9.964;2023-04-03T13:30:25;8.20;99.90
28614;DHT22;15806;53.548;9.964;2023-04-03T13:32:13;8.00;99.90
28614;DHT22;15806;53.548;9.964;2023-04-03T13:41:33;7.50;99.90
28614;DHT22;15806;53.548;9.964;2023-04-03T13:43:34;7.50;99.90
28614;DHT22;15806;53.548;9.964;2023-04-03T13:47:41;7.70;99.90
28614;DHT22;15806;53.548;9.964;2023-04-03T13:51:18;7.80;99.90
28614;DHT22;15806;53.548;9.964;2023-04-03T13:53:08;7.80;99.90
28614;DHT22;15806;53.548;9.964;2023-04-03T13:55:00;7.80;99.90
28614;DHT22;15806;53.548;9.964;2023-04-03T13:56:41;7.90;99.90
28614;DHT22;15806;53.548;9.964;2023-04-03T13:58:27;7.70;99.90
28614;DHT22;15806;53.548;9.964;2023-04-03T14:03:57;7.50;99.90
28614;DHT22;15806;53.548;9.964;2023-04-03T14:05:38;7.60;99.90
28614;DHT22;15806;53.548;9.964;2023-04-03T14:07:19;7.60;99.90
28614;DHT22;15806;53.548;9.964;2023-04-03T14:08:59;7.50;99.90
28614;DHT22;15806;53.548;9.964;2023-04-03T14:10:40;7.50;99.90
28614;DHT22;15806;53.548;9.964;2023-04-03T14:12:33;7.40;99.90
28614;DHT22;15806;53.548;9.964;2023-04-03T14:14:21;7.30;99.90
28614;DHT22;15806;53.548;9.964;2023-04-03T14:16:01;7.40;99.90
28614;DHT22;15806;53.548;9.964;2023-04-03T14:17:42;7.40;99.90
28614;DHT22;15806;53.548;9.964;2023-04-03T14:19:25;7.50;99.90
28614;DHT22;15806;53.548;9.964;2023-04-03T14:21:06;7.50;99.90
28614;DHT22;15806;53.548;9.964;2023-04-03T14:22:47;7.50;99.90
28614;DHT22;15806;53.548;9.964;2023-04-03T14:24:28;7.40;99.90
28614;DHT22;15806;53.548;9.964;2023-04-03T14:26:13;7.30;99.90
28614;DHT22;15806;53.548;9.964;2023-04-03T14:27:54;7.30;99.90
28614;DHT22;15806;53.548;9.964;2023-04-03T14:29:35;7.30;99.90
28614;DHT22;15806;53.548;9.964;2023-04-03T14:31:16;7.30;99.90
28614;DHT22;15806;53.548;9.964;2023-04-03T14:32:58;7.30;99.90
28614;DHT22;15806;53.548;9.964;2023-04-03T14:34:39;7.20;99.90
28614;DHT22;15806;53.548;9.964;2023-04-03T14:36:22;7.20;99.90
28614;DHT22;15806;53.548;9.964;2023-04-03T14:38:12;7.10;99.90
28614;DHT22;15806;53.548;9.964;2023-04-03T14:39:58;7.20;99.90
28614;DHT22;15806;53.548;9.964;2023-04-03T14:41:41;7.20;99.90
28614;DHT22;15806;53.548;9.964;2023-04-03T14:43:22;7.30;99.90
28614;DHT22;15806;53.548;9.964;2023-04-03T14:45:06;7.30;99.90